sensor_id;sensor_type;location;lat;lon;timestamp;P1;durP1;ratioP1;P2;durP2;ratioP2
10557;SDS011;5327;47.238;-2.304;2022-08-11T00:01:23;3.87;;;3.17;;
10557;SDS011;5327;47.238;-2.304;2022-08-11T00:06:26;4.20;;;3.33;;
10557;SDS011;5327;47.238;-2.304;2022-08-11T00:08:54;4.67;;;3.17;;
10557;SDS011;5327;47.238;-2.304;2022-08-11T00:11:20;6.50;;;3.10;;
10557;SDS011;5327;47.238;-2.304;2022-08-11T00:13:48;4.80;;;2.80;;
10557;SDS011;5327;47.238;-2.304;2022-08-11T00:16:16;5.43;;;3.20;;
10557;SDS011;5327;47.238;-2.304;2022-08-11T00:18:42;6.30;;;3.87;;
10557;SDS011;5327;47.238;-2.304;2022-08-11T00:21:09;5.90;;;3.97;;
10557;SDS011;5327;47.238;-2.304;2022-08-11T00:23:43;4.03;;;3.20;;
10557;SDS011;5327;47.238;-2.304;2022-08-11T00:26:11;6.40;;;2.87;;
10557;SDS011;5327;47.238;-2.304;2022-08-11T00:28:38;5.17;;;3.17;;
10557;SDS011;5327;47.238;-2.304;2022-08-11T00:31:06;3.83;;;3.53;;
10557;SDS011;5327;47.238;-2.304;2022-08-11T00:33:40;5.83;;;3.43;;
10557;SDS011;5327;47.238;-2.304;2022-08-11T00:36:07;3.17;;;2.77;;
10557;SDS011;5327;47.238;-2.304;2022-08-11T00:38:38;3.80;;;3.40;;
10557;SDS011;5327;47.238;-2.304;2022-08-11T01:02:12;3.90;;;3.50;;
10557;SDS011;5327;47.238;-2.304;2022-08-11T01:07:15;6.37;;;4.27;;
10557;SDS011;5327;47.238;-2.304;2022-08-11T01:23:35;6.93;;;4.13;;
10557;SDS011;5327;47.238;-2.304;2022-08-11T01:36:46;6.40;;;4.07;;
10557;SDS011;5327;47.238;-2.304;2022-08-11T01:50:08;4.40;;;4.00;;
10557;SDS011;5327;47.238;-2.304;2022-08-11T01:53:22;5.37;;;4.87;;
10557;SDS011;5327;47.238;-2.304;2022-08-11T01:55:31;4.00;;;3.40;;
10557;SDS011;5327;47.238;-2.304;2022-08-11T01:58:07;4.87;;;4.47;;
10557;SDS011;5327;47.238;-2.304;2022-08-11T02:00:50;4.87;;;4.10;;
10557;SDS011;5327;47.238;-2.304;2022-08-11T02:03:26;6.00;;;4.53;;
10557;SDS011;5327;47.238;-2.304;2022-08-11T02:09:00;4.13;;;3.80;;
10557;SDS011;5327;47.238;-2.304;2022-08-11T02:11:29;5.23;;;4.03;;
10557;SDS011;5327;47.238;-2.304;2022-08-11T02:14:01;4.57;;;4.17;;
10557;SDS011;5327;47.238;-2.304;2022-08-11T02:16:46;5.30;;;3.73;;
10557;SDS011;5327;47.238;-2.304;2022-08-11T02:25:05;5.60;;;3.70;;
10557;SDS011;5327;47.238;-2.304;2022-08-11T02:27:40;4.60;;;4.17;;
10557;SDS011;5327;47.238;-2.304;2022-08-11T02:30:15;9.17;;;3.90;;
10557;SDS011;5327;47.238;-2.304;2022-08-11T02:33:02;6.60;;;4.60;;
10557;SDS011;5327;47.238;-2.304;2022-08-11T02:38:53;4.60;;;4.20;;
10557;SDS011;5327;47.238;-2.304;2022-08-11T02:44:10;7.80;;;4.00;;
10557;SDS011;5327;47.238;-2.304;2022-08-11T02:55:21;5.07;;;4.23;;
10557;SDS011;5327;47.238;-2.304;2022-08-11T03:00:30;4.53;;;4.13;;
10557;SDS011;5327;47.238;-2.304;2022-08-11T03:05:57;10.73;;;5.17;;
10557;SDS011;5327;47.238;-2.304;2022-08-11T03:14:28;7.20;;;4.53;;
10557;SDS011;5327;47.238;-2.304;2022-08-11T03:17:24;5.20;;;3.80;;
10557;SDS011;5327;47.238;-2.304;2022-08-11T03:25:17;10.10;;;4.70;;
10557;SDS011;5327;47.238;-2.304;2022-08-11T03:27:48;6.40;;;4.30;;
10557;SDS011;5327;47.238;-2.304;2022-08-11T03:30:17;4.30;;;4.00;;
10557;SDS011;5327;47.238;-2.304;2022-08-11T03:35:36;5.13;;;4.40;;
10557;SDS011;5327;47.238;-2.304;2022-08-11T03:38:06;6.60;;;4.10;;
10557;SDS011;5327;47.238;-2.304;2022-08-11T03:45:57;5.87;;;4.40;;
10557;SDS011;5327;47.238;-2.304;2022-08-11T03:48:36;4.80;;;4.40;;
10557;SDS011;5327;47.238;-2.304;2022-08-11T03:51:06;4.20;;;3.90;;
10557;SDS011;5327;47.238;-2.304;2022-08-11T04:04:46;4.50;;;4.00;;
10557;SDS011;5327;47.238;-2.304;2022-08-11T04:10:06;7.53;;;4.13;;
10557;SDS011;5327;47.238;-2.304;2022-08-11T04:15:12;7.00;;;4.77;;
10557;SDS011;5327;47.238;-2.304;2022-08-11T04:28:47;3.90;;;3.50;;
10557;SDS011;5327;47.238;-2.304;2022-08-11T04:31:29;4.37;;;3.97;;
10557;SDS011;5327;47.238;-2.304;2022-08-11T04:36:36;8.03;;;4.10;;
10557;SDS011;5327;47.238;-2.304;2022-08-11T04:39:27;5.43;;;4.33;;
10557;SDS011;5327;47.238;-2.304;2022-08-11T04:42:21;4.83;;;3.60;;
10557;SDS011;5327;47.238;-2.304;2022-08-11T04:53:51;6.43;;;4.27;;
10557;SDS011;5327;47.238;-2.304;2022-08-11T04:56:39;5.23;;;4.73;;
10557;SDS011;5327;47.238;-2.304;2022-08-11T05:08:01;6.67;;;4.30;;
10557;SDS011;5327;47.238;-2.304;2022-08-11T05:13:02;4.33;;;4.03;;
10557;SDS011;5327;47.238;-2.304;2022-08-11T05:15:53;8.70;;;4.80;;
10557;SDS011;5327;47.238;-2.304;2022-08-11T05:18:49;7.13;;;3.80;;
10557;SDS011;5327;47.238;-2.304;2022-08-11T05:21:35;5.60;;;4.23;;
10557;SDS011;5327;47.238;-2.304;2022-08-11T05:24:21;7.33;;;5.17;;
10557;SDS011;5327;47.238;-2.304;2022-08-11T05:27:11;5.20;;;4.33;;
10557;SDS011;5327;47.238;-2.304;2022-08-11T05:32:45;5.37;;;4.30;;
10557;SDS011;5327;47.238;-2.304;2022-08-11T05:35:34;5.10;;;4.63;;
10557;SDS011;5327;47.238;-2.304;2022-08-11T05:38:03;7.30;;;3.80;;
10557;SDS011;5327;47.238;-2.304;2022-08-11T05:40:53;11.73;;;4.70;;
10557;SDS011;5327;47.238;-2.304;2022-08-11T05:43:40;6.03;;;4.07;;
10557;SDS011;5327;47.238;-2.304;2022-08-11T05:46:27;7.33;;;4.00;;
10557;SDS011;5327;47.238;-2.304;2022-08-11T05:49:13;5.67;;;4.70;;
10557;SDS011;5327;47.238;-2.304;2022-08-11T05:51:58;5.23;;;3.90;;
10557;SDS011;5327;47.238;-2.304;2022-08-11T05:54:43;4.90;;;4.50;;
10557;SDS011;5327;47.238;-2.304;2022-08-11T05:57:31;6.80;;;5.10;;
10557;SDS011;5327;47.238;-2.304;2022-08-11T05:59:59;8.20;;;4.17;;
10557;SDS011;5327;47.238;-2.304;2022-08-11T06:02:25;3.90;;;3.30;;
10557;SDS011;5327;47.238;-2.304;2022-08-11T06:04:59;5.57;;;4.03;;
10557;SDS011;5327;47.238;-2.304;2022-08-11T06:07:26;5.00;;;4.47;;
10557;SDS011;5327;47.238;-2.304;2022-08-11T06:09:53;8.53;;;4.20;;
10557;SDS011;5327;47.238;-2.304;2022-08-11T06:12:21;7.20;;;4.23;;
10557;SDS011;5327;47.238;-2.304;2022-08-11T06:14:49;6.73;;;4.40;;
10557;SDS011;5327;47.238;-2.304;2022-08-11T06:17:20;5.10;;;4.03;;
10557;SDS011;5327;47.238;-2.304;2022-08-11T06:19:47;5.10;;;4.03;;
10557;SDS011;5327;47.238;-2.304;2022-08-11T06:22:18;11.37;;;4.20;;
10557;SDS011;5327;47.238;-2.304;2022-08-11T06:24:49;6.97;;;4.10;;
10557;SDS011;5327;47.238;-2.304;2022-08-11T06:27:20;6.20;;;3.73;;
10557;SDS011;5327;47.238;-2.304;2022-08-11T06:29:48;9.27;;;4.70;;
10557;SDS011;5327;47.238;-2.304;2022-08-11T06:32:14;8.70;;;4.20;;
10557;SDS011;5327;47.238;-2.304;2022-08-11T06:37:52;5.07;;;3.87;;
10557;SDS011;5327;47.238;-2.304;2022-08-11T06:42:59;8.20;;;3.87;;
10557;SDS011;5327;47.238;-2.304;2022-08-11T06:47:52;6.60;;;4.10;;
10557;SDS011;5327;47.238;-2.304;2022-08-11T06:50:19;4.83;;;3.90;;
10557;SDS011;5327;47.238;-2.304;2022-08-11T06:53:05;4.23;;;3.33;;
10557;SDS011;5327;47.238;-2.304;2022-08-11T06:55:34;4.03;;;3.30;;
10557;SDS011;5327;47.238;-2.304;2022-08-11T06:58:20;4.00;;;3.50;;
10557;SDS011;5327;47.238;-2.304;2022-08-11T07:01:09;4.47;;;4.07;;
10557;SDS011;5327;47.238;-2.304;2022-08-11T07:03:39;6.63;;;4.20;;
10557;SDS011;5327;47.238;-2.304;2022-08-11T07:06:15;7.87;;;3.97;;
10557;SDS011;5327;47.238;-2.304;2022-08-11T07:14:45;4.07;;;3.20;;
10557;SDS011;5327;47.238;-2.304;2022-08-11T07:17:30;5.90;;;3.30;;
10557;SDS011;5327;47.238;-2.304;2022-08-11T07:19:58;3.73;;;3.43;;
10557;SDS011;5327;47.238;-2.304;2022-08-11T07:22:50;8.40;;;3.83;;
10557;SDS011;5327;47.238;-2.304;2022-08-11T07:25:38;3.97;;;3.30;;
10557;SDS011;5327;47.238;-2.304;2022-08-11T07:28:24;4.63;;;3.10;;
10557;SDS011;5327;47.238;-2.304;2022-08-11T07:31:10;4.70;;;3.33;;
10557;SDS011;5327;47.238;-2.304;2022-08-11T07:33:44;6.27;;;3.40;;
10557;SDS011;5327;47.238;-2.304;2022-08-11T07:36:11;3.67;;;2.87;;
10557;SDS011;5327;47.238;-2.304;2022-08-11T07:38:39;6.17;;;3.20;;
10557;SDS011;5327;47.238;-2.304;2022-08-11T07:41:15;3.73;;;2.80;;
10557;SDS011;5327;47.238;-2.304;2022-08-11T07:43:41;9.10;;;3.17;;
10557;SDS011;5327;47.238;-2.304;2022-08-11T07:46:09;3.20;;;2.90;;
10557;SDS011;5327;47.238;-2.304;2022-08-11T07:48:54;9.13;;;3.40;;
10557;SDS011;5327;47.238;-2.304;2022-08-11T07:51:40;4.47;;;2.77;;
10557;SDS011;5327;47.238;-2.304;2022-08-11T07:54:25;3.97;;;2.50;;
10557;SDS011;5327;47.238;-2.304;2022-08-11T07:56:51;6.37;;;3.07;;
10557;SDS011;5327;47.238;-2.304;2022-08-11T07:59:18;3.20;;;2.90;;
10557;SDS011;5327;47.238;-2.304;2022-08-11T08:02:03;2.93;;;2.67;;
10557;SDS011;5327;47.238;-2.304;2022-08-11T08:04:48;4.17;;;3.17;;
10557;SDS011;5327;47.238;-2.304;2022-08-11T08:07:33;6.37;;;3.00;;
10557;SDS011;5327;47.238;-2.304;2022-08-11T08:10:20;5.53;;;3.23;;
10557;SDS011;5327;47.238;-2.304;2022-08-11T08:13:05;5.77;;;2.80;;
10557;SDS011;5327;47.238;-2.304;2022-08-11T08:15:51;3.03;;;2.47;;
10557;SDS011;5327;47.238;-2.304;2022-08-11T08:18:36;5.00;;;3.63;;
10557;SDS011;5327;47.238;-2.304;2022-08-11T08:21:02;6.13;;;2.70;;
10557;SDS011;5327;47.238;-2.304;2022-08-11T08:23:44;2.80;;;2.60;;
10557;SDS011;5327;47.238;-2.304;2022-08-11T08:26:11;3.53;;;3.23;;
10557;SDS011;5327;47.238;-2.304;2022-08-11T08:28:58;5.90;;;3.00;;
10557;SDS011;5327;47.238;-2.304;2022-08-11T08:31:44;6.40;;;3.93;;
10557;SDS011;5327;47.238;-2.304;2022-08-11T08:34:12;9.60;;;3.37;;
10557;SDS011;5327;47.238;-2.304;2022-08-11T08:36:41;3.93;;;2.80;;
10557;SDS011;5327;47.238;-2.304;2022-08-11T08:39:08;3.43;;;3.07;;
10557;SDS011;5327;47.238;-2.304;2022-08-11T08:41:34;3.90;;;2.97;;
10557;SDS011;5327;47.238;-2.304;2022-08-11T08:44:03;5.43;;;2.90;;
10557;SDS011;5327;47.238;-2.304;2022-08-11T08:46:33;10.67;;;2.87;;
10557;SDS011;5327;47.238;-2.304;2022-08-11T08:49:00;6.77;;;2.70;;
10557;SDS011;5327;47.238;-2.304;2022-08-11T08:51:27;6.93;;;3.33;;
10557;SDS011;5327;47.238;-2.304;2022-08-11T08:54:02;3.73;;;2.77;;
10557;SDS011;5327;47.238;-2.304;2022-08-11T08:56:29;4.73;;;3.80;;
10557;SDS011;5327;47.238;-2.304;2022-08-11T08:58:58;3.00;;;2.50;;
10557;SDS011;5327;47.238;-2.304;2022-08-11T09:01:26;6.27;;;2.90;;
10557;SDS011;5327;47.238;-2.304;2022-08-11T09:03:54;3.23;;;2.87;;
10557;SDS011;5327;47.238;-2.304;2022-08-11T09:06:20;4.30;;;2.80;;
10557;SDS011;5327;47.238;-2.304;2022-08-11T09:08:46;2.70;;;2.50;;
10557;SDS011;5327;47.238;-2.304;2022-08-11T09:11:12;9.97;;;2.90;;
10557;SDS011;5327;47.238;-2.304;2022-08-11T09:13:58;4.53;;;3.07;;
10557;SDS011;5327;47.238;-2.304;2022-08-11T09:16:25;3.77;;;2.90;;
10557;SDS011;5327;47.238;-2.304;2022-08-11T09:18:52;4.70;;;2.70;;
10557;SDS011;5327;47.238;-2.304;2022-08-11T09:21:18;6.03;;;3.33;;
10557;SDS011;5327;47.238;-2.304;2022-08-11T09:23:47;4.23;;;3.00;;
10557;SDS011;5327;47.238;-2.304;2022-08-11T09:26:33;3.70;;;2.93;;
10557;SDS011;5327;47.238;-2.304;2022-08-11T09:29:18;2.93;;;2.40;;
10557;SDS011;5327;47.238;-2.304;2022-08-11T09:31:45;4.03;;;3.60;;
10557;SDS011;5327;47.238;-2.304;2022-08-11T09:34:12;5.33;;;2.80;;
10557;SDS011;5327;47.238;-2.304;2022-08-11T09:36:39;3.43;;;3.10;;
10557;SDS011;5327;47.238;-2.304;2022-08-11T09:39:25;6.50;;;3.00;;
10557;SDS011;5327;47.238;-2.304;2022-08-11T09:42:09;3.53;;;3.07;;
10557;SDS011;5327;47.238;-2.304;2022-08-11T09:44:36;4.57;;;2.97;;
10557;SDS011;5327;47.238;-2.304;2022-08-11T09:47:21;3.67;;;3.37;;
10557;SDS011;5327;47.238;-2.304;2022-08-11T09:49:47;5.20;;;3.07;;
10557;SDS011;5327;47.238;-2.304;2022-08-11T09:52:15;3.00;;;2.80;;
10557;SDS011;5327;47.238;-2.304;2022-08-11T09:54:43;3.67;;;3.37;;
10557;SDS011;5327;47.238;-2.304;2022-08-11T09:57:09;3.73;;;2.77;;
10557;SDS011;5327;47.238;-2.304;2022-08-11T09:59:54;3.03;;;2.80;;
10557;SDS011;5327;47.238;-2.304;2022-08-11T10:02:27;6.73;;;2.73;;
10557;SDS011;5327;47.238;-2.304;2022-08-11T10:04:55;3.70;;;3.03;;
10557;SDS011;5327;47.238;-2.304;2022-08-11T10:07:44;3.43;;;3.00;;
10557;SDS011;5327;47.238;-2.304;2022-08-11T10:10:14;3.57;;;3.20;;
10557;SDS011;5327;47.238;-2.304;2022-08-11T10:12:41;4.17;;;2.90;;
10557;SDS011;5327;47.238;-2.304;2022-08-11T10:15:11;3.00;;;2.50;;
10557;SDS011;5327;47.238;-2.304;2022-08-11T10:18:05;4.83;;;2.80;;
10557;SDS011;5327;47.238;-2.304;2022-08-11T10:20:50;5.67;;;2.77;;
10557;SDS011;5327;47.238;-2.304;2022-08-11T10:23:19;6.30;;;3.10;;
10557;SDS011;5327;47.238;-2.304;2022-08-11T10:26:04;3.27;;;2.50;;
10557;SDS011;5327;47.238;-2.304;2022-08-11T10:28:50;5.97;;;2.67;;
10557;SDS011;5327;47.238;-2.304;2022-08-11T10:31:18;4.30;;;2.70;;
10557;SDS011;5327;47.238;-2.304;2022-08-11T10:34:03;3.33;;;2.60;;
10557;SDS011;5327;47.238;-2.304;2022-08-11T10:38:56;3.37;;;2.20;;
10557;SDS011;5327;47.238;-2.304;2022-08-11T10:41:22;5.67;;;2.23;;
10557;SDS011;5327;47.238;-2.304;2022-08-11T10:44:08;2.77;;;2.57;;
10557;SDS011;5327;47.238;-2.304;2022-08-11T10:46:35;3.00;;;2.00;;
10557;SDS011;5327;47.238;-2.304;2022-08-11T10:49:21;3.37;;;2.20;;
10557;SDS011;5327;47.238;-2.304;2022-08-11T10:51:48;6.43;;;2.80;;
10557;SDS011;5327;47.238;-2.304;2022-08-11T10:54:33;5.33;;;2.97;;
10557;SDS011;5327;47.238;-2.304;2022-08-11T10:57:18;3.00;;;2.43;;
10557;SDS011;5327;47.238;-2.304;2022-08-11T11:00:04;2.57;;;2.40;;
10557;SDS011;5327;47.238;-2.304;2022-08-11T11:02:31;3.57;;;2.40;;
10557;SDS011;5327;47.238;-2.304;2022-08-11T11:07:26;2.67;;;2.10;;
10557;SDS011;5327;47.238;-2.304;2022-08-11T11:09:56;3.57;;;3.10;;
10557;SDS011;5327;47.238;-2.304;2022-08-11T11:12:24;4.03;;;2.73;;
10557;SDS011;5327;47.238;-2.304;2022-08-11T11:15:10;8.00;;;2.80;;
10557;SDS011;5327;47.238;-2.304;2022-08-11T11:17:57;3.73;;;2.67;;
10557;SDS011;5327;47.238;-2.304;2022-08-11T11:20:39;4.70;;;2.40;;
10557;SDS011;5327;47.238;-2.304;2022-08-11T11:23:13;2.47;;;2.27;;
10557;SDS011;5327;47.238;-2.304;2022-08-11T11:36:50;6.00;;;2.47;;
10557;SDS011;5327;47.238;-2.304;2022-08-11T11:39:19;2.67;;;2.47;;
10557;SDS011;5327;47.238;-2.304;2022-08-11T11:41:45;2.07;;;1.87;;
10557;SDS011;5327;47.238;-2.304;2022-08-11T11:44:13;3.13;;;2.53;;
10557;SDS011;5327;47.238;-2.304;2022-08-11T11:46:39;5.00;;;3.17;;
10557;SDS011;5327;47.238;-2.304;2022-08-11T11:49:09;2.60;;;2.40;;
10557;SDS011;5327;47.238;-2.304;2022-08-11T11:51:35;2.80;;;2.60;;
10557;SDS011;5327;47.238;-2.304;2022-08-11T11:54:02;3.87;;;2.13;;
10557;SDS011;5327;47.238;-2.304;2022-08-11T11:56:29;3.20;;;2.60;;
10557;SDS011;5327;47.238;-2.304;2022-08-11T11:58:55;5.17;;;2.40;;
10557;SDS011;5327;47.238;-2.304;2022-08-11T12:01:40;2.93;;;2.70;;
10557;SDS011;5327;47.238;-2.304;2022-08-11T12:04:07;2.50;;;2.30;;
10557;SDS011;5327;47.238;-2.304;2022-08-11T12:06:35;4.43;;;2.40;;
10557;SDS011;5327;47.238;-2.304;2022-08-11T12:09:02;4.77;;;2.37;;
10557;SDS011;5327;47.238;-2.304;2022-08-11T12:11:29;7.27;;;2.10;;
10557;SDS011;5327;47.238;-2.304;2022-08-11T12:14:18;6.00;;;2.47;;
10557;SDS011;5327;47.238;-2.304;2022-08-11T12:16:45;2.80;;;2.17;;
10557;SDS011;5327;47.238;-2.304;2022-08-11T12:19:12;3.10;;;2.20;;
10557;SDS011;5327;47.238;-2.304;2022-08-11T12:21:40;10.43;;;2.37;;
10557;SDS011;5327;47.238;-2.304;2022-08-11T12:24:26;5.93;;;2.70;;
10557;SDS011;5327;47.238;-2.304;2022-08-11T12:27:11;2.80;;;2.33;;
10557;SDS011;5327;47.238;-2.304;2022-08-11T12:29:51;7.93;;;2.70;;
10557;SDS011;5327;47.238;-2.304;2022-08-11T12:32:18;3.40;;;2.60;;
10557;SDS011;5327;47.238;-2.304;2022-08-11T12:34:45;3.80;;;2.67;;
10557;SDS011;5327;47.238;-2.304;2022-08-11T12:37:11;4.67;;;2.80;;
10557;SDS011;5327;47.238;-2.304;2022-08-11T12:39:41;7.90;;;2.33;;
10557;SDS011;5327;47.238;-2.304;2022-08-11T12:42:26;3.10;;;2.03;;
10557;SDS011;5327;47.238;-2.304;2022-08-11T12:45:11;4.03;;;2.37;;
10557;SDS011;5327;47.238;-2.304;2022-08-11T12:50:51;4.70;;;2.30;;
10557;SDS011;5327;47.238;-2.304;2022-08-11T12:53:38;2.53;;;1.90;;
10557;SDS011;5327;47.238;-2.304;2022-08-11T12:56:07;3.20;;;2.00;;
10557;SDS011;5327;47.238;-2.304;2022-08-11T12:58:52;5.40;;;1.90;;
10557;SDS011;5327;47.238;-2.304;2022-08-11T13:01:37;6.30;;;2.17;;
10557;SDS011;5327;47.238;-2.304;2022-08-11T13:04:22;5.97;;;2.23;;
10557;SDS011;5327;47.238;-2.304;2022-08-11T13:07:06;3.43;;;2.00;;
10557;SDS011;5327;47.238;-2.304;2022-08-11T13:09:34;2.53;;;2.20;;
10557;SDS011;5327;47.238;-2.304;2022-08-11T13:12:00;2.20;;;2.00;;
10557;SDS011;5327;47.238;-2.304;2022-08-11T13:14:45;1.93;;;1.83;;
10557;SDS011;5327;47.238;-2.304;2022-08-11T13:17:11;4.93;;;1.90;;
10557;SDS011;5327;47.238;-2.304;2022-08-11T13:19:48;5.73;;;2.60;;
10557;SDS011;5327;47.238;-2.304;2022-08-11T13:22:19;2.30;;;2.00;;
10557;SDS011;5327;47.238;-2.304;2022-08-11T13:24:46;2.57;;;2.37;;
10557;SDS011;5327;47.238;-2.304;2022-08-11T13:27:14;5.50;;;2.10;;
10557;SDS011;5327;47.238;-2.304;2022-08-11T13:29:41;3.67;;;1.83;;
10557;SDS011;5327;47.238;-2.304;2022-08-11T13:32:10;3.03;;;1.87;;
10557;SDS011;5327;47.238;-2.304;2022-08-11T13:34:37;3.93;;;2.40;;
10557;SDS011;5327;47.238;-2.304;2022-08-11T13:37:06;4.90;;;2.00;;
10557;SDS011;5327;47.238;-2.304;2022-08-11T13:39:33;5.20;;;2.60;;
10557;SDS011;5327;47.238;-2.304;2022-08-11T13:42:01;3.27;;;2.40;;
10557;SDS011;5327;47.238;-2.304;2022-08-11T13:44:28;3.80;;;2.17;;
10557;SDS011;5327;47.238;-2.304;2022-08-11T13:46:56;3.60;;;1.57;;
10557;SDS011;5327;47.238;-2.304;2022-08-11T13:49:22;5.83;;;2.10;;
10557;SDS011;5327;47.238;-2.304;2022-08-11T13:51:49;2.37;;;2.17;;
10557;SDS011;5327;47.238;-2.304;2022-08-11T13:54:16;3.77;;;2.33;;
10557;SDS011;5327;47.238;-2.304;2022-08-11T13:56:43;4.90;;;2.33;;
10557;SDS011;5327;47.238;-2.304;2022-08-11T13:59:10;2.07;;;1.97;;
10557;SDS011;5327;47.238;-2.304;2022-08-11T14:01:39;4.10;;;2.20;;
10557;SDS011;5327;47.238;-2.304;2022-08-11T14:04:10;2.60;;;2.40;;
10557;SDS011;5327;47.238;-2.304;2022-08-11T14:06:37;4.47;;;2.47;;
10557;SDS011;5327;47.238;-2.304;2022-08-11T14:09:08;3.30;;;2.20;;
10557;SDS011;5327;47.238;-2.304;2022-08-11T14:11:35;3.70;;;2.33;;
10557;SDS011;5327;47.238;-2.304;2022-08-11T14:14:22;2.50;;;2.30;;
10557;SDS011;5327;47.238;-2.304;2022-08-11T14:16:49;3.30;;;2.20;;
10557;SDS011;5327;47.238;-2.304;2022-08-11T14:19:17;4.90;;;2.10;;
10557;SDS011;5327;47.238;-2.304;2022-08-11T14:21:47;2.50;;;2.30;;
10557;SDS011;5327;47.238;-2.304;2022-08-11T14:24:35;2.47;;;2.20;;
10557;SDS011;5327;47.238;-2.304;2022-08-11T14:27:02;3.80;;;2.30;;
10557;SDS011;5327;47.238;-2.304;2022-08-11T14:29:28;3.57;;;2.03;;
10557;SDS011;5327;47.238;-2.304;2022-08-11T14:32:00;4.03;;;2.13;;
10557;SDS011;5327;47.238;-2.304;2022-08-11T14:34:28;2.87;;;2.57;;
10557;SDS011;5327;47.238;-2.304;2022-08-11T14:36:55;2.53;;;2.40;;
10557;SDS011;5327;47.238;-2.304;2022-08-11T14:39:23;3.03;;;2.53;;
10557;SDS011;5327;47.238;-2.304;2022-08-11T14:41:57;3.37;;;2.60;;
10557;SDS011;5327;47.238;-2.304;2022-08-11T14:44:46;3.53;;;2.47;;
10557;SDS011;5327;47.238;-2.304;2022-08-11T14:47:32;5.20;;;2.37;;
10557;SDS011;5327;47.238;-2.304;2022-08-11T14:49:59;6.87;;;3.13;;
10557;SDS011;5327;47.238;-2.304;2022-08-11T14:52:26;5.30;;;2.63;;
10557;SDS011;5327;47.238;-2.304;2022-08-11T14:54:54;3.40;;;2.73;;
10557;SDS011;5327;47.238;-2.304;2022-08-11T14:57:39;2.87;;;2.67;;
10557;SDS011;5327;47.238;-2.304;2022-08-11T15:00:07;2.87;;;2.67;;
10557;SDS011;5327;47.238;-2.304;2022-08-11T15:02:37;2.90;;;2.70;;
10557;SDS011;5327;47.238;-2.304;2022-08-11T15:05:23;2.87;;;2.57;;
10557;SDS011;5327;47.238;-2.304;2022-08-11T15:07:50;2.90;;;2.57;;
10557;SDS011;5327;47.238;-2.304;2022-08-11T15:10:17;5.23;;;3.30;;
10557;SDS011;5327;47.238;-2.304;2022-08-11T15:12:43;3.33;;;3.03;;
10557;SDS011;5327;47.238;-2.304;2022-08-11T15:15:10;4.53;;;3.20;;
10557;SDS011;5327;47.238;-2.304;2022-08-11T15:17:58;5.77;;;3.53;;
10557;SDS011;5327;47.238;-2.304;2022-08-11T15:20:26;3.73;;;3.00;;
10557;SDS011;5327;47.238;-2.304;2022-08-11T15:23:11;5.73;;;3.30;;
10557;SDS011;5327;47.238;-2.304;2022-08-11T15:25:57;5.73;;;3.90;;
10557;SDS011;5327;47.238;-2.304;2022-08-11T15:28:24;5.53;;;3.60;;
10557;SDS011;5327;47.238;-2.304;2022-08-11T15:31:10;4.43;;;3.30;;
10557;SDS011;5327;47.238;-2.304;2022-08-11T15:33:54;4.60;;;3.73;;
10557;SDS011;5327;47.238;-2.304;2022-08-11T15:36:39;3.83;;;3.50;;
10557;SDS011;5327;47.238;-2.304;2022-08-11T15:39:33;2.93;;;2.73;;
10557;SDS011;5327;47.238;-2.304;2022-08-11T15:42:06;10.90;;;3.60;;
10557;SDS011;5327;47.238;-2.304;2022-08-11T15:44:53;5.60;;;3.87;;
10557;SDS011;5327;47.238;-2.304;2022-08-11T15:47:41;3.70;;;3.40;;
10557;SDS011;5327;47.238;-2.304;2022-08-11T15:50:09;4.70;;;3.53;;
10557;SDS011;5327;47.238;-2.304;2022-08-11T15:52:40;3.23;;;3.03;;
10557;SDS011;5327;47.238;-2.304;2022-08-11T15:55:08;4.43;;;3.17;;
10557;SDS011;5327;47.238;-2.304;2022-08-11T15:57:35;3.40;;;3.00;;
10557;SDS011;5327;47.238;-2.304;2022-08-11T16:00:20;3.10;;;2.90;;
10557;SDS011;5327;47.238;-2.304;2022-08-11T16:03:05;8.80;;;3.40;;
10557;SDS011;5327;47.238;-2.304;2022-08-11T16:05:51;6.67;;;3.77;;
10557;SDS011;5327;47.238;-2.304;2022-08-11T16:08:18;3.30;;;2.70;;
10557;SDS011;5327;47.238;-2.304;2022-08-11T16:10:49;4.80;;;3.57;;
10557;SDS011;5327;47.238;-2.304;2022-08-11T16:13:16;2.80;;;2.43;;
10557;SDS011;5327;47.238;-2.304;2022-08-11T16:15:47;4.80;;;2.80;;
10557;SDS011;5327;47.238;-2.304;2022-08-11T16:21:21;4.00;;;3.00;;
10557;SDS011;5327;47.238;-2.304;2022-08-11T16:23:49;4.33;;;3.07;;
10557;SDS011;5327;47.238;-2.304;2022-08-11T16:26:17;6.37;;;3.03;;
10557;SDS011;5327;47.238;-2.304;2022-08-11T16:28:46;2.97;;;2.33;;
10557;SDS011;5327;47.238;-2.304;2022-08-11T16:31:14;2.80;;;2.60;;
10557;SDS011;5327;47.238;-2.304;2022-08-11T16:33:40;3.13;;;2.83;;
10557;SDS011;5327;47.238;-2.304;2022-08-11T16:36:07;4.33;;;2.70;;
10557;SDS011;5327;47.238;-2.304;2022-08-11T16:38:53;4.60;;;2.87;;
10557;SDS011;5327;47.238;-2.304;2022-08-11T16:41:21;6.60;;;3.07;;
10557;SDS011;5327;47.238;-2.304;2022-08-11T16:44:06;2.90;;;2.57;;
10557;SDS011;5327;47.238;-2.304;2022-08-11T16:46:53;3.40;;;2.30;;
10557;SDS011;5327;47.238;-2.304;2022-08-11T16:49:27;2.93;;;2.30;;
10557;SDS011;5327;47.238;-2.304;2022-08-11T16:51:55;2.87;;;2.47;;
10557;SDS011;5327;47.238;-2.304;2022-08-11T16:54:21;2.73;;;2.53;;
10557;SDS011;5327;47.238;-2.304;2022-08-11T16:56:51;4.40;;;2.73;;
10557;SDS011;5327;47.238;-2.304;2022-08-11T17:01:50;2.67;;;2.47;;
10557;SDS011;5327;47.238;-2.304;2022-08-11T17:07:21;6.33;;;2.03;;
10557;SDS011;5327;47.238;-2.304;2022-08-11T17:10:09;2.80;;;2.57;;
10557;SDS011;5327;47.238;-2.304;2022-08-11T17:12:54;2.20;;;2.10;;
10557;SDS011;5327;47.238;-2.304;2022-08-11T17:15:37;5.10;;;2.43;;
10557;SDS011;5327;47.238;-2.304;2022-08-11T17:18:23;2.33;;;2.07;;
10557;SDS011;5327;47.238;-2.304;2022-08-11T17:21:05;4.77;;;2.00;;
10557;SDS011;5327;47.238;-2.304;2022-08-11T17:23:33;3.73;;;2.23;;
10557;SDS011;5327;47.238;-2.304;2022-08-11T17:26:17;2.50;;;2.30;;
10557;SDS011;5327;47.238;-2.304;2022-08-11T17:28:44;2.43;;;2.23;;
10557;SDS011;5327;47.238;-2.304;2022-08-11T17:31:10;2.77;;;1.93;;
10557;SDS011;5327;47.238;-2.304;2022-08-11T17:33:57;2.70;;;2.13;;
10557;SDS011;5327;47.238;-2.304;2022-08-11T17:36:43;3.43;;;2.17;;
10557;SDS011;5327;47.238;-2.304;2022-08-11T17:39:09;6.37;;;2.27;;
10557;SDS011;5327;47.238;-2.304;2022-08-11T17:41:37;3.23;;;2.30;;
10557;SDS011;5327;47.238;-2.304;2022-08-11T17:44:23;2.60;;;2.10;;
10557;SDS011;5327;47.238;-2.304;2022-08-11T17:47:08;4.03;;;2.83;;
10557;SDS011;5327;47.238;-2.304;2022-08-11T17:49:53;3.60;;;1.83;;
10557;SDS011;5327;47.238;-2.304;2022-08-11T17:52:19;4.63;;;2.10;;
10557;SDS011;5327;47.238;-2.304;2022-08-11T17:55:05;2.47;;;2.27;;
10557;SDS011;5327;47.238;-2.304;2022-08-11T17:57:51;7.03;;;2.00;;
10557;SDS011;5327;47.238;-2.304;2022-08-11T18:00:36;4.73;;;2.50;;
10557;SDS011;5327;47.238;-2.304;2022-08-11T18:03:03;2.03;;;1.93;;
10557;SDS011;5327;47.238;-2.304;2022-08-11T18:05:48;3.20;;;2.00;;
10557;SDS011;5327;47.238;-2.304;2022-08-11T18:08:15;4.90;;;2.47;;
10557;SDS011;5327;47.238;-2.304;2022-08-11T18:11:02;2.77;;;2.37;;
10557;SDS011;5327;47.238;-2.304;2022-08-11T18:13:47;4.77;;;2.17;;
10557;SDS011;5327;47.238;-2.304;2022-08-11T18:16:33;4.73;;;2.50;;
10557;SDS011;5327;47.238;-2.304;2022-08-11T18:19:17;3.10;;;2.07;;
10557;SDS011;5327;47.238;-2.304;2022-08-11T18:22:04;2.67;;;2.20;;
10557;SDS011;5327;47.238;-2.304;2022-08-11T18:24:51;2.90;;;2.70;;
10557;SDS011;5327;47.238;-2.304;2022-08-11T18:27:37;3.73;;;2.90;;
10557;SDS011;5327;47.238;-2.304;2022-08-11T18:30:25;2.80;;;2.60;;
10557;SDS011;5327;47.238;-2.304;2022-08-11T18:33:10;2.87;;;2.57;;
10557;SDS011;5327;47.238;-2.304;2022-08-11T18:35:57;3.93;;;2.53;;
10557;SDS011;5327;47.238;-2.304;2022-08-11T18:38:43;3.03;;;2.57;;
10557;SDS011;5327;47.238;-2.304;2022-08-11T18:41:30;5.83;;;2.43;;
10557;SDS011;5327;47.238;-2.304;2022-08-11T18:44:18;4.20;;;2.87;;
10557;SDS011;5327;47.238;-2.304;2022-08-11T18:47:05;3.63;;;2.50;;
10557;SDS011;5327;47.238;-2.304;2022-08-11T18:49:51;4.00;;;2.70;;
10557;SDS011;5327;47.238;-2.304;2022-08-11T18:52:36;4.23;;;2.77;;
10557;SDS011;5327;47.238;-2.304;2022-08-11T18:55:22;7.53;;;3.10;;
10557;SDS011;5327;47.238;-2.304;2022-08-11T18:58:08;4.37;;;2.40;;
10557;SDS011;5327;47.238;-2.304;2022-08-11T19:00:55;3.30;;;2.17;;